createdAt,value
2022-11-15T00:04:37.211Z,100
2022-11-15T00:09:35.319Z,100
2022-11-15T00:14:33.456Z,100
2022-11-15T00:19:31.449Z,100
2022-11-15T00:24:29.643Z,100
2022-11-15T00:29:27.832Z,100
2022-11-15T00:34:26.135Z,100
2022-11-15T00:39:24.084Z,100
2022-11-15T00:44:22.327Z,100
2022-11-15T00:49:20.507Z,100
2022-11-15T00:54:18.596Z,100
2022-11-15T00:59:16.646Z,100
2022-11-15T01:04:14.705Z,100
2022-11-15T01:09:12.855Z,100
2022-11-15T01:14:10.849Z,100
2022-11-15T01:19:09.065Z,100
2022-11-15T01:24:07.230Z,100
2022-11-15T01:29:05.177Z,100
2022-11-15T01:34:03.392Z,100
2022-11-15T01:39:01.501Z,100
2022-11-15T01:43:59.641Z,100
2022-11-15T01:48:57.819Z,100
2022-11-15T01:53:55.879Z,100
2022-11-15T01:58:54.060Z,100
2022-11-15T02:03:52.134Z,100
2022-11-15T02:08:50.285Z,100
2022-11-15T02:13:48.483Z,100
2022-11-15T02:18:46.473Z,100
2022-11-15T02:23:44.594Z,100
2022-11-15T02:28:42.722Z,100
2022-11-15T02:33:40.910Z,100
2022-11-15T02:38:39.015Z,100
2022-11-15T02:43:37.161Z,100
2022-11-15T02:48:35.359Z,100
2022-11-15T02:53:34.589Z,100
2022-11-15T02:58:32.477Z,100
2022-11-15T03:03:31.179Z,100
2022-11-15T03:08:29.505Z,100
2022-11-15T03:13:27.724Z,100
2022-11-15T03:18:25.775Z,100
2022-11-15T03:23:24.145Z,100
2022-11-15T03:28:22.193Z,100
2022-11-15T03:33:20.189Z,100
2022-11-15T03:38:18.371Z,100
2022-11-15T03:43:16.563Z,100
2022-11-15T03:48:14.658Z,100
2022-11-15T03:53:12.561Z,100
2022-11-15T03:58:10.795Z,100
2022-11-15T04:03:08.767Z,100
2022-11-15T04:08:06.820Z,100
2022-11-15T04:13:05.126Z,100
2022-11-15T04:18:03.264Z,100
2022-11-15T04:23:01.148Z,100
2022-11-15T04:27:59.425Z,100
2022-11-15T04:32:57.850Z,100
2022-11-15T04:37:56.163Z,100
2022-11-15T04:42:55.516Z,100
2022-11-15T04:47:52.347Z,100
2022-11-15T04:52:50.431Z,100
2022-11-15T04:57:48.855Z,100
2022-11-15T05:02:47.129Z,100
2022-11-15T05:07:45.463Z,100
2022-11-15T05:12:43.654Z,100
2022-11-15T05:17:41.703Z,100
2022-11-15T05:22:39.919Z,100
2022-11-15T05:27:38.140Z,100
2022-11-15T05:32:36.368Z,100
2022-11-15T05:37:34.547Z,100
2022-11-15T05:42:32.889Z,100
2022-11-15T05:47:31.382Z,100
2022-11-15T05:52:29.829Z,100
2022-11-15T05:57:28.564Z,100
2022-11-15T06:02:27.165Z,100
2022-11-15T06:07:25.865Z,100
2022-11-15T06:12:24.280Z,100
2022-11-15T06:17:22.963Z,99.1
2022-11-15T06:22:22.104Z,96.8
2022-11-15T06:27:20.654Z,96
2022-11-15T06:32:19.709Z,92.1
2022-11-15T06:37:21.990Z,81.4
2022-11-15T06:42:23.663Z,72.6
2022-11-15T06:47:24.635Z,67.9
2022-11-15T06:52:25.176Z,66.4
2022-11-15T06:57:25.487Z,60.3
2022-11-15T07:02:25.139Z,56.2
2022-11-15T07:07:24.974Z,53.3
2022-11-15T07:12:24.049Z,50.5
2022-11-15T07:17:23.178Z,48.5
2022-11-15T07:22:22.917Z,45.7
2022-11-15T07:27:21.936Z,44.1
2022-11-15T07:32:19.945Z,43.8
2022-11-15T07:37:19.234Z,41.8
2022-11-15T07:42:18.901Z,40
2022-11-15T07:47:18.241Z,39.6
2022-11-15T07:52:13.801Z,41.1
2022-11-15T07:57:13.658Z,39.5
2022-11-15T08:02:13.503Z,38.3
2022-11-15T08:07:12.509Z,37.1
2022-11-15T08:12:11.689Z,36.5
2022-11-15T08:17:10.383Z,36.2
2022-11-15T08:22:09.259Z,35.7
2022-11-15T08:27:08.137Z,35.4
2022-11-15T08:32:06.706Z,34.9
2022-11-15T08:37:04.765Z,35.4
2022-11-15T08:42:03.827Z,34.9
2022-11-15T08:47:02.419Z,33.7
2022-11-15T08:52:01.282Z,33.3
2022-11-15T08:56:59.777Z,33.8
2022-11-15T09:01:58.337Z,32.9
2022-11-15T09:06:57.112Z,32.6
2022-11-15T09:11:59.549Z,32.2
2022-11-15T09:16:53.357Z,31.7
2022-11-15T09:21:52.044Z,31.2
2022-11-15T09:26:50.091Z,30.7
2022-11-15T09:31:48.105Z,30.2
2022-11-15T09:36:46.171Z,29.6
2022-11-15T09:41:44.473Z,29.1
2022-11-15T09:46:42.834Z,29.1
2022-11-15T09:51:41.088Z,29.1
2022-11-15T09:56:39.188Z,28.1
2022-11-15T10:01:37.648Z,28
2022-11-15T10:06:36.045Z,27.6
2022-11-15T10:11:38.788Z,27.5
2022-11-15T10:16:32.637Z,26.8
2022-11-15T10:21:30.919Z,27
2022-11-15T10:26:28.812Z,26.7
2022-11-15T10:31:26.840Z,26.9
2022-11-15T10:36:24.554Z,27.5
2022-11-15T10:46:52.932Z,29.2
2022-11-15T10:51:25.906Z,29
2022-11-15T10:56:23.112Z,30.3
2022-11-15T11:01:19.668Z,32.5
2022-11-15T11:06:15.358Z,34.8
2022-11-15T11:11:12.353Z,36
2022-11-15T11:16:09.789Z,37.9
2022-11-15T11:21:07.733Z,39.3
2022-11-15T11:26:05.822Z,40.3
2022-11-15T11:31:03.186Z,41.6
2022-11-15T11:36:00.827Z,43.9
2022-11-15T11:40:58.298Z,43.9
2022-11-15T11:45:56.501Z,43.7
2022-11-15T11:50:54.638Z,43.9
2022-11-15T11:55:52.525Z,43.1
2022-11-15T12:00:50.626Z,43.7
2022-11-15T12:05:49.180Z,43.7
2022-11-15T12:10:47.112Z,44.2
2022-11-15T12:15:45.269Z,43.4
2022-11-15T12:20:43.146Z,43.9
2022-11-15T12:25:41.024Z,44
2022-11-15T12:30:39.241Z,43.6
2022-11-15T12:35:37.588Z,43.5
2022-11-15T12:40:35.846Z,42.6
2022-11-15T12:45:33.709Z,43.6
2022-11-15T12:50:31.637Z,43.6
2022-11-15T12:55:29.411Z,44.1
2022-11-15T13:00:26.819Z,46.8
2022-11-15T13:05:24.096Z,50.6
2022-11-15T13:10:25.204Z,54.2
2022-11-15T13:15:18.663Z,57.2
2022-11-15T13:20:16.099Z,58.6
2022-11-15T13:25:13.657Z,62.1
2022-11-15T13:30:11.583Z,64.6
2022-11-15T13:35:09.492Z,65.3
2022-11-15T13:40:07.490Z,66.9
2022-11-15T13:45:05.441Z,68.2
2022-11-15T13:50:04.440Z,69.3
2022-11-15T13:55:01.202Z,69.3
2022-11-15T13:59:59.471Z,70.2
2022-11-15T14:04:57.454Z,73
2022-11-15T14:09:55.379Z,73.4
2022-11-15T14:14:53.658Z,74.3
2022-11-15T14:19:51.642Z,72.9
2022-11-15T14:24:49.978Z,74.5
2022-11-15T14:29:47.865Z,75.3
2022-11-15T14:34:45.727Z,77.3
2022-11-15T14:39:43.545Z,78.5
2022-11-15T14:44:45.713Z,79.8
2022-11-15T14:49:39.618Z,81
2022-11-15T14:54:37.636Z,82
2022-11-15T14:59:52.293Z,83.5
2022-11-15T15:04:47.521Z,82.9
2022-11-15T15:09:45.526Z,83
2022-11-15T15:14:44.021Z,82.7
2022-11-15T15:19:42.110Z,81.9
2022-11-15T15:24:40.597Z,82.1
2022-11-15T15:29:38.853Z,82.5
2022-11-15T15:34:37.239Z,82.7
2022-11-15T15:39:35.496Z,82.5
2022-11-15T15:44:33.564Z,83.2
2022-11-15T15:49:31.853Z,84.2
2022-11-15T15:54:29.753Z,85.2
2022-11-15T15:59:28.055Z,85
2022-11-15T16:04:26.440Z,86.2
2022-11-15T16:09:24.749Z,87.8
2022-11-15T16:14:22.532Z,88.5
2022-11-15T16:19:20.775Z,88.3
2022-11-15T16:24:18.800Z,88.4
2022-11-15T16:29:17.109Z,88.5
2022-11-15T16:34:15.098Z,89.3
2022-11-15T16:39:13.152Z,90
2022-11-15T16:44:11.128Z,91.3
2022-11-15T16:49:09.402Z,91.4
2022-11-15T16:54:07.601Z,91.5
2022-11-15T16:59:05.643Z,91.8
2022-11-15T17:04:03.659Z,92.5
2022-11-15T17:09:01.853Z,93.8
2022-11-15T17:13:59.804Z,94.2
2022-11-15T17:18:57.953Z,95.2
2022-11-15T17:23:56.169Z,95.8
2022-11-15T17:28:54.302Z,96.2
2022-11-15T17:33:52.253Z,97.4
2022-11-15T17:38:50.393Z,97.7
2022-11-15T17:43:48.778Z,98.2
2022-11-15T17:48:47.134Z,98.4
2022-11-15T17:53:45.648Z,98.6
2022-11-15T17:58:43.750Z,99.2
2022-11-15T18:03:41.835Z,99.8
2022-11-15T18:08:39.969Z,99.9
2022-11-15T18:13:38.477Z,100
2022-11-15T18:18:37.066Z,100
2022-11-15T18:23:35.566Z,100
2022-11-15T18:28:33.997Z,100
2022-11-15T18:33:32.375Z,100
2022-11-15T18:38:30.397Z,100
2022-11-15T18:43:28.717Z,100
2022-11-15T18:48:27.026Z,100
2022-11-15T18:53:25.278Z,100
2022-11-15T18:58:23.615Z,100
2022-11-15T19:03:32.297Z,100
2022-11-15T19:08:20.519Z,100
2022-11-15T19:13:18.989Z,100
2022-11-15T19:18:17.317Z,100
2022-11-15T19:23:15.560Z,100
2022-11-15T19:28:13.787Z,100
2022-11-15T19:33:12.056Z,100
2022-11-15T19:38:10.591Z,100
2022-11-15T19:43:08.875Z,100
2022-11-15T19:48:07.346Z,100
2022-11-15T19:53:05.810Z,100
2022-11-15T19:58:04.235Z,100
2022-11-15T20:03:02.579Z,100
2022-11-15T20:08:00.848Z,100
2022-11-15T20:12:58.868Z,100
2022-11-15T20:17:56.862Z,100
2022-11-15T20:22:55.039Z,100
2022-11-15T20:27:53.448Z,100
2022-11-15T20:32:51.630Z,100
2022-11-15T20:37:49.853Z,100
2022-11-15T20:42:48.004Z,100
2022-11-15T20:48:00.712Z,100
2022-11-15T20:52:56.417Z,100
2022-11-15T20:57:54.636Z,100
2022-11-15T21:02:52.939Z,100
2022-11-15T21:07:51.197Z,100
2022-11-15T21:12:49.400Z,100
2022-11-15T21:17:47.633Z,100
2022-11-15T21:22:45.751Z,100
2022-11-15T21:27:43.842Z,100
2022-11-15T21:32:41.920Z,100
2022-11-15T21:37:40.033Z,100
2022-11-15T21:42:38.413Z,100
2022-11-15T21:47:36.594Z,100
2022-11-15T21:52:34.729Z,100
2022-11-15T21:57:32.966Z,100
2022-11-15T22:02:31.229Z,100
2022-11-15T22:07:29.489Z,100
2022-11-15T22:12:29.766Z,100
2022-11-15T22:17:25.845Z,100
2022-11-15T22:22:24.008Z,100
2022-11-15T22:27:22.244Z,100
2022-11-15T22:32:20.432Z,100
2022-11-15T22:37:20.845Z,100
2022-11-15T22:42:20.807Z,100
2022-11-15T22:47:14.755Z,100
2022-11-15T22:52:12.903Z,100
2022-11-15T22:57:10.973Z,100
2022-11-15T23:02:09.263Z,100
2022-11-15T23:07:07.747Z,100
2022-11-15T23:12:06.788Z,100
2022-11-15T23:17:04.928Z,100
2022-11-15T23:22:03.485Z,100
2022-11-15T23:27:02.214Z,100
2022-11-15T23:32:02.278Z,100
2022-11-15T23:36:58.998Z,100
2022-11-15T23:41:57.419Z,100
2022-11-15T23:46:55.638Z,100
2022-11-15T23:51:53.953Z,100
2022-11-15T23:56:52.137Z,100
